Time;durP1;ratioP1;P1;durP2;ratioP2;P2;SDS_P1;SDS_P2;PMS_P1;PMS_P2;Temp;Humidity;BMP_temperature;BMP_pressure;BME280_temperature;BME280_humidity;BME280_pressure;Samples;Min_cycle;Max_cycle;Signal;HPM_P1;HPM_P2
2023/01/30 00:00:18;;;;;;;15.00;6.90;;;;;;;7.82;100.00;101657.41;4974851;28;20035;-62
2023/01/30 00:02:43;;;;;;;11.07;6.38;;;;;;;7.84;100.00;101660.88;4974391;28;20498;-62
2023/01/30 00:05:08;;;;;;;15.90;6.88;;;;;;;7.59;100.00;101618.25;4974549;28;20536;-61
2023/01/30 00:07:33;;;;;;;15.98;7.07;;;;;;;7.81;100.00;101653.03;4973410;28;20545;-61
2023/01/30 00:09:59;;;;;;;12.85;6.50;;;;;;;7.75;100.00;101629.50;4974772;28;20125;-61
2023/01/30 00:12:24;;;;;;;13.80;6.65;;;;;;;7.79;100.00;101628.59;4974670;28;20385;-61
2023/01/30 00:14:49;;;;;;;17.77;7.20;;;;;;;7.76;100.00;101634.69;4974488;28;20045;-64
2023/01/30 00:17:15;;;;;;;17.88;7.28;;;;;;;7.74;100.00;101623.38;4974525;28;20379;-61
2023/01/30 00:19:40;;;;;;;18.92;8.10;;;;;;;7.40;100.00;101564.28;4974280;28;20471;-61
2023/01/30 00:22:05;;;;;;;19.90;6.40;;;;;;;7.34;100.00;101548.59;4974358;28;20086;-64
2023/01/30 00:24:31;;;;;;;18.98;7.75;;;;;;;7.80;100.00;101630.31;4974673;28;20438;-63
2023/01/30 00:26:56;;;;;;;21.58;8.05;;;;;;;7.48;100.00;101558.97;4974622;28;20039;-63
2023/01/30 00:29:22;;;;;;;18.95;6.40;;;;;;;7.77;100.00;101614.59;4974270;28;20034;-63
2023/01/30 00:31:47;;;;;;;14.20;7.03;;;;;;;7.76;100.00;101605.88;4974130;28;20380;-65
2023/01/30 00:34:12;;;;;;;18.65;7.43;;;;;;;7.76;100.00;101616.34;4973902;28;20361;-62
2023/01/30 00:36:37;;;;;;;17.23;7.22;;;;;;;7.78;100.00;101604.13;4974432;28;20035;-62
2023/01/30 00:39:03;;;;;;;16.75;7.53;;;;;;;7.67;100.00;101595.50;4972842;28;20046;-62
2023/01/30 00:47:04;;;;;;;13.25;6.35;;;;;;;7.40;100.00;101545.06;4972821;28;20047;-63
2023/01/30 00:47:07;;;;;;;17.13;6.65;;;;;;;7.32;100.00;101511.09;4973898;28;20497;-62
2023/01/30 00:49:34;;;;;;;23.75;6.95;;;;;;;7.36;100.00;101525.88;4974138;28;20093;-64
2023/01/30 00:51:59;;;;;;;19.58;6.28;;;;;;;7.12;100.00;101477.19;4973712;28;20121;-62
2023/01/30 00:54:24;;;;;;;16.40;5.80;;;;;;;7.38;100.00;101511.88;4972702;28;20109;-60
2023/01/30 00:56:50;;;;;;;17.58;5.93;;;;;;;7.74;100.00;101575.31;4974199;28;20039;-63
2023/01/30 00:59:15;;;;;;;16.30;6.22;;;;;;;7.55;100.00;101532.72;4972179;28;20043;-61
2023/01/30 01:01:40;;;;;;;14.77;5.80;;;;;;;7.71;100.00;101531.69;4972504;28;20042;-61
2023/01/30 01:04:07;;;;;;;18.17;6.13;;;;;;;7.26;100.00;101464.88;4973497;28;20389;-63
2023/01/30 01:06:33;;;;;;;13.57;6.07;;;;;;;7.67;100.00;101535.22;4972717;28;20427;-62
2023/01/30 01:08:58;;;;;;;11.43;4.88;;;;;;;7.63;100.00;101514.28;4973809;28;20055;-62
2023/01/30 01:11:23;;;;;;;14.27;5.53;;;;;;;7.21;100.00;101444.84;4972381;28;20482;-62
2023/01/30 01:13:56;;;;;;;12.48;5.40;;;;;;;7.18;100.00;101457.97;4973237;28;20064;-64
2023/01/30 01:16:22;;;;;;;11.00;4.72;;;;;;;7.60;100.00;101520.44;4973018;28;20502;-63
2023/01/30 01:18:48;;;;;;;26.20;5.85;;;;;;;7.30;100.00;101465.69;4972302;28;20122;-64
2023/01/30 01:21:14;;;;;;;15.43;5.05;;;;;;;7.56;100.00;101517.88;4973392;28;20105;-62
2023/01/30 01:23:39;;;;;;;15.45;4.50;;;;;;;7.54;100.00;101514.38;4972019;28;20051;-61
2023/01/30 01:26:04;;;;;;;13.02;4.40;;;;;;;7.43;100.00;101511.88;4973284;28;20031;-62
2023/01/30 01:28:30;;;;;;;12.40;4.68;;;;;;;7.19;100.00;101471.03;4972847;28;20039;-63
2023/01/30 01:30:56;;;;;;;14.25;4.75;;;;;;;7.54;100.00;101523.09;4973175;28;20034;-64
2023/01/30 01:33:21;;;;;;;11.75;4.07;;;;;;;7.40;100.00;101490.94;4973303;28;20039;-63
2023/01/30 01:35:46;;;;;;;11.63;3.85;;;;;;;7.18;100.00;101450.97;4971314;28;20085;-61
2023/01/30 01:38:12;;;;;;;14.43;4.75;;;;;;;7.22;100.00;101462.28;4972911;28;20061;-62
2023/01/30 01:43:23;;;;;;;13.05;4.28;;;;;;;7.20;100.00;101469.31;4972828;28;20053;-61
2023/01/30 01:45:51;;;;;;;17.45;4.65;;;;;;;7.60;100.00;101537.91;4972169;28;20118;-63
2023/01/30 01:48:39;;;;;;;11.32;4.00;;;;;;;7.59;100.00;101536.19;4973005;28;20057;-62
2023/01/30 01:51:08;;;;;;;12.88;5.00;;;;;;;7.11;100.00;101470.25;4973018;28;20023;-63
2023/01/30 01:53:37;;;;;;;15.55;4.53;;;;;;;7.43;100.00;101514.50;4971090;28;20295;-64
2023/01/30 01:56:03;;;;;;;14.25;4.78;;;;;;;7.40;100.00;101526.72;4971990;28;20039;-65
2023/01/30 01:58:33;;;;;;;16.30;4.50;;;;;;;7.33;100.00;101531.16;4955584;28;20129;-61
2023/01/30 02:00:59;;;;;;;12.77;4.55;;;;;;;7.28;100.00;101533.81;4972977;28;20050;-64
2023/01/30 02:03:28;;;;;;;19.83;4.20;;;;;;;6.89;100.00;101452.13;4971101;28;20035;-64
2023/01/30 02:05:57;;;;;;;11.27;4.30;;;;;;;6.99;100.00;101482.56;4971805;28;20106;-60
2023/01/30 02:08:29;;;;;;;21.40;5.10;;;;;;;6.76;100.00;101449.59;4971408;28;20062;-61
2023/01/30 02:11:03;;;;;;;11.63;4.18;;;;;;;7.19;100.00;101523.41;4971411;28;20045;-62
2023/01/30 02:13:30;;;;;;;16.80;4.18;;;;;;;6.78;100.00;101439.09;4972840;28;20035;-60
2023/01/30 02:15:58;;;;;;;14.65;4.50;;;;;;;7.20;100.00;101505.97;4971363;28;20483;-62
2023/01/30 02:18:24;;;;;;;11.52;4.10;;;;;;;6.85;100.00;101451.25;4971451;28;20110;-63
2023/01/30 02:21:12;;;;;;;10.48;3.53;;;;;;;7.25;100.00;101507.66;4972572;28;20117;-63
2023/01/30 02:23:58;;;;;;;16.75;4.00;;;;;;;7.30;100.00;101515.47;4971878;28;20122;-63
2023/01/30 02:26:24;;;;;;;20.35;4.25;;;;;;;7.38;100.00;101504.03;4972506;28;20038;-61
2023/01/30 02:29:07;;;;;;;13.57;3.75;;;;;;;7.41;100.00;101497.94;4975738;28;20031;-61
2023/01/30 02:32:09;;;;;;;20.30;4.18;;;;;;;7.43;100.00;101501.38;4976726;28;20062;-62
2023/01/30 02:34:40;;;;;;;10.65;4.05;;;;;;;7.45;100.00;101503.97;4976357;28;20209;-62
2023/01/30 02:37:30;;;;;;;15.00;3.80;;;;;;;7.46;100.00;101503.09;4974907;28;20054;-61
2023/01/30 02:40:24;;;;;;;15.68;3.85;;;;;;;7.42;100.00;101512.75;4976040;28;20042;-61
2023/01/30 02:43:08;;;;;;;18.38;3.88;;;;;;;7.40;100.00;101521.50;4967891;28;20046;-62
2023/01/30 02:45:41;;;;;;;14.05;4.07;;;;;;;7.12;100.00;101443.16;4958314;28;20127;-63
2023/01/30 02:48:30;;;;;;;10.40;3.67;;;;;;;7.38;100.00;101492.72;4972621;28;20046;-62
2023/01/30 02:51:04;;;;;;;16.10;4.13;;;;;;;7.36;100.00;101479.63;4967482;28;20490;-62
2023/01/30 02:53:34;;;;;;;13.55;4.15;;;;;;;7.45;100.00;101507.47;4974526;28;20114;-62
2023/01/30 02:55:59;;;;;;;12.82;3.60;;;;;;;7.07;100.00;101425.75;4974428;28;20034;-63
2023/01/30 02:58:28;;;;;;;14.35;3.78;;;;;;;7.43;100.00;101480.44;4974495;28;20434;-62
2023/01/30 03:01:24;;;;;;;13.80;5.10;;;;;;;7.57;100.00;101480.28;4975839;28;20065;-61
2023/01/30 03:04:04;;;;;;;14.38;4.07;;;;;;;7.52;100.00;101484.72;4975829;28;20066;-63
2023/01/30 03:06:48;;;;;;;18.10;4.40;;;;;;;7.29;100.00;101430.81;4974006;28;20035;-64
2023/01/30 03:09:21;;;;;;;13.75;4.50;;;;;;;7.62;100.00;101505.56;4974803;28;20039;-60
2023/01/30 03:11:56;;;;;;;11.32;3.83;;;;;;;6.99;100.00;101390.94;4974726;28;20466;-62
2023/01/30 03:14:47;;;;;;;12.70;3.85;;;;;;;7.67;100.00;101492.44;4973923;28;20395;-63
2023/01/30 03:17:13;;;;;;;15.32;3.80;;;;;;;6.16;100.00;101238.19;4975945;28;20061;-64
2023/01/30 03:19:38;;;;;;;17.17;4.22;;;;;;;7.64;100.00;101495.09;4958184;28;20054;-62
2023/01/30 03:22:04;;;;;;;17.38;4.20;;;;;;;7.68;100.00;101474.06;4975808;28;20046;-62
2023/01/30 03:24:29;;;;;;;16.73;5.13;;;;;;;7.24;100.00;101416.88;4975549;28;20031;-61
2023/01/30 03:26:59;;;;;;;13.07;3.95;;;;;;;7.63;100.00;101481.09;4975833;28;20030;-61
2023/01/30 03:29:24;;;;;;;11.13;4.30;;;;;;;7.31;100.00;101436.03;4974017;28;20035;-61
2023/01/30 03:31:50;;;;;;;9.73;3.72;;;;;;;7.31;100.00;101433.41;4975848;28;20050;-64
2023/01/30 03:34:15;;;;;;;15.60;4.18;;;;;;;7.64;100.00;101474.13;4975321;28;20061;-63
2023/01/30 03:36:40;;;;;;;12.40;3.72;;;;;;;7.31;100.00;101425.56;4975751;28;20108;-64
2023/01/30 03:39:06;;;;;;;19.92;4.70;;;;;;;7.67;100.00;101492.44;4974945;28;20110;-63
2023/01/30 03:41:31;;;;;;;17.83;4.68;;;;;;;7.57;100.00;101465.44;4957809;28;20050;-62
2023/01/30 03:43:57;;;;;;;21.75;4.53;;;;;;;7.63;100.00;101490.72;4975283;28;20038;-63
2023/01/30 03:46:24;;;;;;;19.48;4.72;;;;;;;7.25;100.00;101416.00;4975103;28;20038;-67
2023/01/30 03:48:49;;;;;;;16.13;4.65;;;;;;;7.27;100.00;101416.84;4975233;28;20118;-62
2023/01/30 03:51:15;;;;;;;14.00;4.07;;;;;;;7.61;100.00;101497.72;4974313;28;20109;-65
2023/01/30 03:53:40;;;;;;;21.67;4.95;;;;;;;7.56;100.00;101470.72;4973968;28;20066;-64
2023/01/30 03:56:05;;;;;;;16.40;4.28;;;;;;;7.23;100.00;101411.66;4975169;28;20074;-62
2023/01/30 03:58:31;;;;;;;15.63;4.78;;;;;;;7.58;100.00;101471.56;4969652;28;20050;-67
2023/01/30 04:00:56;;;;;;;18.42;4.55;;;;;;;7.36;100.00;101436.84;4972775;28;20055;-64
2023/01/30 04:03:22;;;;;;;18.02;4.45;;;;;;;7.56;100.00;101486.44;4974096;28;20041;-61
2023/01/30 04:05:48;;;;;;;14.93;3.92;;;;;;;7.49;100.00;101445.47;4972895;28;20058;-62
2023/01/30 04:08:13;;;;;;;16.45;3.85;;;;;;;7.54;100.00;101462.84;4972694;28;20067;-62
2023/01/30 04:10:38;;;;;;;16.45;4.30;;;;;;;7.50;100.00;101463.75;4974774;28;20121;-65
2023/01/30 04:13:04;;;;;;;16.25;3.88;;;;;;;7.39;100.00;101465.63;4973325;28;20122;-61
2023/01/30 04:15:29;;;;;;;14.38;3.47;;;;;;;7.28;100.00;101465.72;4974858;28;20035;-62
2023/01/30 04:17:54;;;;;;;20.38;4.03;;;;;;;6.90;100.00;101430.28;4974180;28;20534;-65
2023/01/30 04:20:19;;;;;;;13.98;3.78;;;;;;;7.28;100.00;101484.06;4974508;28;20517;-61
2023/01/30 04:22:45;;;;;;;10.48;3.38;;;;;;;7.23;100.00;101478.00;4973133;28;20134;-63
2023/01/30 04:25:10;;;;;;;9.52;3.05;;;;;;;7.18;100.00;101487.63;4974754;28;20416;-61
2023/01/30 04:27:35;;;;;;;11.77;3.05;;;;;;;7.27;100.00;101511.13;4972592;28;20042;-63
2023/01/30 04:30:01;;;;;;;10.23;2.88;;;;;;;7.04;100.00;101459.81;4973704;28;20031;-63
2023/01/30 04:32:26;;;;;;;10.05;2.83;;;;;;;7.39;100.00;101518.00;4974729;28;20031;-62
2023/01/30 04:34:51;;;;;;;10.43;3.47;;;;;;;7.33;100.00;101494.47;4973165;28;20089;-63
2023/01/30 04:37:17;;;;;;;8.60;2.50;;;;;;;7.16;100.00;101468.44;4974165;28;20491;-61
2023/01/30 04:39:42;;;;;;;15.10;4.43;;;;;;;7.17;100.00;101479.81;4972867;28;20192;-61
2023/01/30 04:42:07;;;;;;;8.75;2.50;;;;;;;7.53;100.00;101534.47;4974059;28;20097;-64
2023/01/30 04:44:33;;;;;;;11.13;2.92;;;;;;;7.57;100.00;101543.16;4973910;28;20043;-64
2023/01/30 04:46:58;;;;;;;10.50;2.42;;;;;;;7.62;100.00;101544.00;4973815;28;20090;-61
2023/01/30 04:49:23;;;;;;;13.05;2.55;;;;;;;7.57;100.00;101527.44;4972756;28;20506;-64
2023/01/30 04:51:49;;;;;;;14.05;3.00;;;;;;;7.71;100.00;101557.00;4972675;28;20053;-65
2023/01/30 04:54:14;;;;;;;16.83;3.00;;;;;;;7.73;100.00;101571.00;4972748;28;20051;-65
2023/01/30 04:56:39;;;;;;;12.27;3.55;;;;;;;7.41;100.00;101524.13;4956423;28;20089;-60
2023/01/30 04:59:05;;;;;;;12.77;2.63;;;;;;;7.61;100.00;101576.34;4972532;28;20089;-64
2023/01/30 05:01:32;;;;;;;10.93;2.60;;;;;;;7.14;100.00;101482.44;4972782;28;20463;-66
2023/01/30 05:03:58;;;;;;;14.60;3.10;;;;;;;7.40;100.00;101555.53;4974041;28;20134;-68
2023/01/30 05:06:24;;;;;;;13.57;3.13;;;;;;;7.38;100.00;101566.06;4972587;28;20454;-61
2023/01/30 05:08:53;;;;;;;13.40;3.13;;;;;;;6.90;100.00;101478.25;4973320;28;20089;-62
2023/01/30 05:11:19;;;;;;;9.70;2.88;;;;;;;7.15;100.00;101531.31;4956040;28;20039;-61
2023/01/30 05:13:45;;;;;;;12.05;3.10;;;;;;;6.77;100.00;101495.78;4972637;28;20031;-66
2023/01/30 05:16:12;;;;;;;16.48;3.88;;;;;;;6.99;100.00;101537.53;4973650;28;20093;-62
2023/01/30 05:18:38;;;;;;;13.68;4.25;;;;;;;6.89;100.00;101555.03;4973567;28;20118;-61
2023/01/30 05:21:08;;;;;;;17.98;3.70;;;;;;;6.91;100.00;101537.59;4972132;28;20125;-63
2023/01/30 05:23:34;;;;;;;19.95;3.42;;;;;;;6.55;100.00;101477.63;4972094;28;20475;-61
2023/01/30 05:26:00;;;;;;;14.98;4.20;;;;;;;6.49;100.00;101498.56;4972945;28;20035;-62
2023/01/30 05:28:25;;;;;;;16.58;3.92;;;;;;;6.42;100.00;101486.44;4973289;28;20042;-65
2023/01/30 05:30:51;;;;;;;15.70;3.50;;;;;;;6.77;100.00;101555.13;4973201;28;20065;-61
2023/01/30 05:33:16;;;;;;;15.63;3.28;;;;;;;6.70;100.00;101558.63;4972796;28;20113;-61
2023/01/30 05:35:50;;;;;;;14.52;4.00;;;;;;;6.00;100.00;101445.66;4972994;28;20504;-62
2023/01/30 05:38:15;;;;;;;21.23;4.28;;;;;;;6.56;100.00;101550.00;4971535;28;20077;-62
2023/01/30 05:40:41;;;;;;;23.25;4.53;;;;;;;6.39;100.00;101554.41;4972677;28;20519;-63
2023/01/30 05:43:06;;;;;;;25.25;5.30;;;;;;;6.02;100.00;101504.88;4971998;28;20065;-63
2023/01/30 05:45:32;;;;;;;31.02;4.45;;;;;;;6.43;100.00;101563.97;4955537;28;20043;-64
2023/01/30 05:47:57;;;;;;;25.95;3.80;;;;;;;6.45;100.00;101583.16;4970574;28;20078;-62
2023/01/30 05:50:23;;;;;;;25.42;5.15;;;;;;;6.36;100.00;101583.19;4971708;28;20038;-62
2023/01/30 05:52:48;;;;;;;25.05;5.50;;;;;;;6.27;100.00;101567.53;4971772;28;20070;-63
2023/01/30 05:55:13;;;;;;;27.80;5.22;;;;;;;5.90;100.00;101502.28;4972562;28;20034;-62
2023/01/30 05:57:39;;;;;;;17.80;4.47;;;;;;;5.74;100.00;101487.50;4969800;28;20037;-62
2023/01/30 06:00:05;;;;;;;29.02;5.50;;;;;;;5.88;100.00;101504.06;4953606;28;20039;-61
2023/01/30 06:02:30;;;;;;;26.63;4.80;;;;;;;5.39;100.00;101427.53;4970899;28;20043;-63
2023/01/30 06:04:56;;;;;;;26.58;4.97;;;;;;;6.12;100.00;101577.16;4972624;28;20041;-62
2023/01/30 06:07:21;;;;;;;20.60;4.93;;;;;;;6.02;100.00;101569.34;4954021;28;20034;-62
2023/01/30 06:09:47;;;;;;;27.35;5.60;;;;;;;5.60;100.00;101497.97;4954977;28;20039;-62
2023/01/30 06:12:12;;;;;;;23.05;4.47;;;;;;;6.01;100.00;101573.69;4971498;28;20039;-62
2023/01/30 06:14:37;;;;;;;21.85;4.70;;;;;;;6.02;100.00;101593.72;4972388;28;20041;-61
2023/01/30 06:17:03;;;;;;;21.55;5.07;;;;;;;6.01;100.00;101562.38;4973005;28;20031;-62
2023/01/30 06:19:28;;;;;;;18.80;4.22;;;;;;;6.01;100.00;101555.38;4973110;28;20042;-61
2023/01/30 06:21:53;;;;;;;23.10;4.20;;;;;;;5.97;100.00;101571.97;4971218;28;20121;-62
2023/01/30 06:24:19;;;;;;;24.13;4.28;;;;;;;5.87;100.00;101559.78;4972814;28;20045;-63
2023/01/30 06:26:44;;;;;;;24.05;4.25;;;;;;;5.98;100.00;101578.06;4972708;28;20058;-62
2023/01/30 06:29:09;;;;;;;18.80;4.60;;;;;;;5.86;100.00;101575.47;4972804;28;20026;-62
2023/01/30 06:31:35;;;;;;;26.27;5.18;;;;;;;5.91;100.00;101592.88;4972919;28;20035;-61
2023/01/30 06:34:00;;;;;;;24.55;5.18;;;;;;;5.89;100.00;101588.53;4972508;28;20406;-61
2023/01/30 06:36:25;;;;;;;29.00;5.10;;;;;;;5.88;100.00;101600.72;4971016;28;20082;-67
2023/01/30 06:38:51;;;;;;;21.65;4.95;;;;;;;5.84;100.00;101575.44;4972518;28;20067;-61
2023/01/30 06:41:16;;;;;;;24.13;4.82;;;;;;;5.87;100.00;101590.25;4971340;28;20042;-62
2023/01/30 06:43:41;;;;;;;24.40;4.25;;;;;;;5.63;100.00;101549.34;4972583;28;20042;-63
2023/01/30 06:46:07;;;;;;;26.05;5.07;;;;;;;5.84;100.00;101593.72;4972540;28;20035;-61
2023/01/30 06:48:32;;;;;;;17.08;4.25;;;;;;;5.87;100.00;101569.34;4971048;28;20062;-65
2023/01/30 06:50:57;;;;;;;25.40;4.38;;;;;;;5.50;100.00;101532.81;4972146;28;20046;-62
2023/01/30 06:53:29;;;;;;;18.65;4.22;;;;;;;5.84;100.00;101609.38;4972417;28;20031;-62
2023/01/30 06:55:55;;;;;;;16.33;4.05;;;;;;;5.83;100.00;101604.19;4971368;28;20045;-62
2023/01/30 06:58:20;;;;;;;19.70;4.03;;;;;;;5.82;100.00;101615.50;4972328;28;20062;-61
2023/01/30 07:00:46;;;;;;;26.52;4.65;;;;;;;5.55;100.00;101574.56;4970452;28;20561;-63
2023/01/30 07:03:13;;;;;;;16.92;3.83;;;;;;;5.45;100.00;101565.91;4972303;28;20038;-63
2023/01/30 07:05:39;;;;;;;24.77;4.55;;;;;;;5.51;100.00;101580.69;4972350;28;20493;-63
2023/01/30 07:08:04;;;;;;;22.08;4.90;;;;;;;5.61;100.00;101587.63;4972468;28;20039;-63
2023/01/30 07:10:31;;;;;;;23.85;4.07;;;;;;;5.73;100.00;101610.28;4972126;28;20038;-61
2023/01/30 07:12:57;;;;;;;24.95;4.57;;;;;;;5.39;100.00;101565.91;4972720;28;20038;-61
2023/01/30 07:15:22;;;;;;;21.02;4.30;;;;;;;5.79;100.00;101647.72;4974023;28;20034;-62
2023/01/30 07:17:47;;;;;;;17.30;4.28;;;;;;;5.37;100.00;101579.81;4975269;28;20062;-61
2023/01/30 07:20:13;;;;;;;23.58;4.88;;;;;;;5.63;100.00;101641.59;4975574;28;20051;-62
2023/01/30 07:22:38;;;;;;;19.50;4.43;;;;;;;5.74;100.00;101661.66;4974372;28;20466;-62
2023/01/30 07:25:04;;;;;;;21.00;4.50;;;;;;;5.74;100.00;101651.19;4975640;28;20062;-63
2023/01/30 07:27:30;;;;;;;23.15;5.10;;;;;;;5.69;100.00;101646.00;4973946;28;20483;-63
2023/01/30 07:29:55;;;;;;;20.10;4.15;;;;;;;5.33;100.00;101563.28;4975331;28;20031;-62
2023/01/30 07:32:21;;;;;;;21.17;3.97;;;;;;;5.44;100.00;101579.81;4974627;28;20043;-63
2023/01/30 07:34:46;;;;;;;21.83;5.35;;;;;;;5.47;100.00;101584.16;4974840;28;20121;-65
2023/01/30 07:37:12;;;;;;;17.98;3.70;;;;;;;5.90;100.00;101643.38;4974632;28;20071;-62
2023/01/30 07:39:37;;;;;;;24.67;3.95;;;;;;;5.86;100.00;101632.94;4974906;28;20070;-62
2023/01/30 07:42:03;;;;;;;15.45;4.07;;;;;;;5.89;100.00;101638.19;4973938;28;20490;-62
2023/01/30 07:44:29;;;;;;;21.65;4.28;;;;;;;5.57;100.00;101578.94;4973827;28;20034;-64
2023/01/30 07:46:54;;;;;;;22.10;3.78;;;;;;;5.85;100.00;101637.31;4973995;28;20039;-64
2023/01/30 07:49:20;;;;;;;19.85;4.53;;;;;;;5.93;100.00;101648.63;4974612;28;20089;-62
2023/01/30 07:51:45;;;;;;;18.70;3.72;;;;;;;5.58;100.00;101585.91;4974806;28;20122;-62
2023/01/30 07:54:11;;;;;;;14.30;4.25;;;;;;;5.50;100.00;101577.22;4974958;28;20089;-63
2023/01/30 07:56:36;;;;;;;19.75;4.03;;;;;;;6.04;100.00;101672.16;4974635;28;20055;-65
2023/01/30 07:59:02;;;;;;;15.85;3.78;;;;;;;6.03;100.00;101652.09;4974666;28;20097;-62
2023/01/30 08:01:28;;;;;;;18.63;4.55;;;;;;;5.65;100.00;101598.09;4974592;28;20039;-62
2023/01/30 08:03:53;;;;;;;19.00;3.78;;;;;;;6.07;100.00;101682.59;4973405;28;20049;-62
2023/01/30 08:06:18;;;;;;;20.13;3.55;;;;;;;6.10;100.00;101685.22;4974627;28;20545;-62
2023/01/30 08:08:44;;;;;;;21.85;4.30;;;;;;;6.14;100.00;101686.94;4974118;28;20189;-63
2023/01/30 08:11:09;;;;;;;17.27;3.95;;;;;;;6.20;100.00;101681.69;4973088;28;20483;-62
2023/01/30 08:13:35;;;;;;;20.17;3.88;;;;;;;6.20;100.00;101698.25;4974674;28;20046;-64
2023/01/30 08:16:01;;;;;;;27.92;5.53;;;;;;;6.13;100.00;101672.09;4974537;28;20166;-66
2023/01/30 08:18:31;;;;;;;18.27;4.00;;;;;;;6.30;100.00;101678.22;4973351;28;20038;-63
2023/01/30 08:21:01;;;;;;;18.02;4.30;;;;;;;6.16;100.00;101651.19;4973731;28;20125;-62
2023/01/30 08:23:26;;;;;;;27.52;5.13;;;;;;;5.83;100.00;101596.34;4974286;28;20027;-64
2023/01/30 08:26:00;;;;;;;20.50;4.70;;;;;;;5.84;100.00;101612.00;4973075;28;20092;-64
2023/01/30 08:28:26;;;;;;;21.13;4.07;;;;;;;6.23;100.00;101661.66;4974347;28;20769;-62
2023/01/30 08:30:53;;;;;;;23.02;4.75;;;;;;;6.35;100.00;101694.75;4973797;28;20027;-63
2023/01/30 08:33:19;;;;;;;25.15;4.43;;;;;;;6.41;100.00;101676.44;4974304;28;20118;-66
2023/01/30 08:35:44;;;;;;;14.10;3.72;;;;;;;6.11;100.00;101625.06;4973185;28;20039;-66
2023/01/30 08:38:10;;;;;;;17.75;4.40;;;;;;;6.07;100.00;101612.03;4972654;28;20390;-63
2023/01/30 08:40:35;;;;;;;18.33;4.68;;;;;;;6.48;100.00;101701.69;4970519;28;20508;-62
2023/01/30 08:43:01;;;;;;;25.45;4.07;;;;;;;6.37;100.00;101711.31;4971770;28;20039;-61
2023/01/30 08:45:27;;;;;;;19.33;4.57;;;;;;;6.53;100.00;101733.09;4972214;28;20050;-61
2023/01/30 08:47:52;;;;;;;16.83;4.18;;;;;;;6.26;100.00;101666.00;4972951;28;20146;-62
2023/01/30 08:50:18;;;;;;;22.52;4.38;;;;;;;6.69;100.00;101735.66;4972788;28;20461;-60
2023/01/30 08:52:43;;;;;;;17.92;4.55;;;;;;;6.83;100.00;101737.38;4955649;28;20034;-62
2023/01/30 08:55:09;;;;;;;14.50;3.80;;;;;;;6.98;100.00;101747.78;4971585;28;20046;-62
2023/01/30 08:57:34;;;;;;;23.60;4.43;;;;;;;6.98;100.00;101730.34;4972977;28;20443;-62
2023/01/30 09:00:00;;;;;;;20.00;3.90;;;;;;;7.14;100.00;101759.97;4971574;28;20049;-61
2023/01/30 09:02:25;;;;;;;20.27;4.20;;;;;;;7.09;100.00;101744.25;4970780;28;20046;-62
2023/01/30 09:04:50;;;;;;;16.10;4.57;;;;;;;6.80;100.00;101683.28;4972785;28;20434;-64
2023/01/30 09:07:16;;;;;;;17.02;4.63;;;;;;;7.25;100.00;101737.22;4972418;28;20034;-62
2023/01/30 09:09:42;;;;;;;20.73;4.50;;;;;;;7.29;100.00;101754.66;4972921;28;20549;-60
2023/01/30 09:12:07;;;;;;;16.73;3.35;;;;;;;7.18;100.00;101741.59;4975584;28;20045;-62
2023/01/30 09:14:32;;;;;;;22.67;4.03;;;;;;;7.10;100.00;101747.75;4972169;28;20482;-61
2023/01/30 09:16:58;;;;;;;19.58;4.15;;;;;;;7.18;100.00;101765.16;4971079;28;20047;-61
2023/01/30 09:19:25;;;;;;;20.52;4.95;;;;;;;7.17;100.00;101762.56;4972291;28;20532;-61
2023/01/30 09:21:51;;;;;;;22.02;4.20;;;;;;;7.04;100.00;101764.34;4970491;28;20070;-63
2023/01/30 09:24:17;;;;;;;21.52;3.95;;;;;;;7.27;100.00;101775.59;4971027;28;20039;-62
2023/01/30 09:26:44;;;;;;;14.80;3.60;;;;;;;7.39;100.00;101774.69;4971339;28;20043;-62
2023/01/30 09:29:10;;;;;;;12.18;3.33;;;;;;;7.53;100.00;101788.59;4970513;28;20038;-63
2023/01/30 09:31:36;;;;;;;16.45;3.55;;;;;;;7.55;100.00;101781.59;4972265;28;20037;-64
2023/01/30 09:34:01;;;;;;;19.42;3.67;;;;;;;7.18;100.00;101698.88;4971244;28;20038;-63
2023/01/30 09:36:27;;;;;;;13.82;3.35;;;;;;;7.63;100.00;101782.44;4971442;28;20031;-61
2023/01/30 09:38:52;;;;;;;20.13;4.15;;;;;;;7.61;100.00;101809.53;4971512;28;20031;-66
2023/01/30 09:41:42;;;;;;;18.00;4.53;;;;;;;7.63;100.00;101792.91;4951363;29;20384;-62
2023/01/30 09:44:07;;;;;;;22.55;5.30;;;;;;;7.57;100.00;101813.91;4962367;28;20101;-61
2023/01/30 09:46:51;;;;;;;20.48;4.72;;;;;;;7.58;100.00;101813.03;4971987;28;20077;-62
2023/01/30 09:49:35;;;;;;;18.90;4.25;;;;;;;7.60;100.00;101815.63;4960841;28;20051;-64
2023/01/30 09:52:09;;;;;;;18.45;4.40;;;;;;;7.61;100.00;101825.25;4971788;28;20034;-63
2023/01/30 09:54:37;;;;;;;20.95;4.22;;;;;;;7.14;100.00;101728.53;4970481;28;20062;-61
2023/01/30 09:57:22;;;;;;;17.67;4.07;;;;;;;7.56;100.00;101800.81;4955611;28;20026;-64
2023/01/30 10:00:11;;;;;;;17.73;3.63;;;;;;;7.67;100.00;101818.22;4951482;29;20023;-61
2023/01/30 10:03:07;;;;;;;19.95;4.75;;;;;;;7.70;100.00;101833.94;4952673;28;20062;-62
2023/01/30 10:05:41;;;;;;;16.05;5.45;;;;;;;7.30;100.00;101762.50;4961422;28;20062;-62
2023/01/30 10:08:38;;;;;;;17.15;4.10;;;;;;;7.91;100.00;101852.16;4971868;28;20117;-63
2023/01/30 10:11:32;;;;;;;22.52;4.05;;;;;;;8.06;100.00;101863.44;4969931;28;20051;-62
2023/01/30 10:14:16;;;;;;;25.23;5.03;;;;;;;7.89;100.00;101856.53;4964398;28;20073;-62
2023/01/30 10:17:03;;;;;;;20.02;4.35;;;;;;;7.77;100.00;101866.22;4971306;28;20039;-61
2023/01/30 10:19:56;;;;;;;21.40;4.90;;;;;;;7.84;100.00;101876.69;4954522;28;20042;-62
2023/01/30 10:22:33;;;;;;;17.23;4.53;;;;;;;7.84;100.00;101870.56;4971699;28;20034;-63
2023/01/30 10:25:06;;;;;;;22.08;4.30;;;;;;;7.99;100.00;101865.25;4971139;28;20039;-62
2023/01/30 10:27:32;;;;;;;17.85;4.72;;;;;;;7.67;100.00;101792.03;4969444;28;20122;-65
2023/01/30 10:30:01;;;;;;;23.05;4.85;;;;;;;7.85;100.00;101799.75;4969074;28;20129;-63
2023/01/30 10:32:30;;;;;;;21.90;4.60;;;;;;;8.24;100.00;101871.19;4970734;28;20122;-61
2023/01/30 10:35:21;;;;;;;26.33;4.85;;;;;;;7.43;100.00;101744.13;4969290;28;20039;-64
2023/01/30 10:37:56;;;;;;;22.60;4.85;;;;;;;7.90;100.00;101802.38;4971235;28;20507;-64
2023/01/30 10:40:32;;;;;;;23.00;5.30;;;;;;;8.18;100.00;101871.22;4971385;28;20046;-62
2023/01/30 10:43:06;;;;;;;22.58;4.57;;;;;;;8.22;100.00;101883.47;4971315;28;20549;-63
2023/01/30 10:45:40;;;;;;;22.13;5.05;;;;;;;8.23;100.00;101885.22;4970984;28;20035;-62
2023/01/30 10:48:29;;;;;;;18.75;4.60;;;;;;;8.17;100.00;101872.13;4970773;28;20528;-63
2023/01/30 10:50:59;;;;;;;19.15;4.45;;;;;;;8.03;100.00;101866.06;4973920;28;20102;-62
2023/01/30 10:53:41;;;;;;;24.17;4.40;;;;;;;7.99;100.00;101865.25;4957658;28;20113;-62
2023/01/30 10:56:35;;;;;;;20.85;4.97;;;;;;;7.57;100.00;101807.78;4974547;28;20050;-64
2023/01/30 10:59:06;;;;;;;18.08;4.30;;;;;;;7.98;100.00;101899.31;4957062;28;20058;-64
2023/01/30 11:01:50;;;;;;;20.50;5.32;;;;;;;7.82;100.00;101843.50;4973700;28;20038;-61
2023/01/30 11:04:29;;;;;;;23.90;5.45;;;;;;;8.14;100.00;101896.63;4975039;28;20529;-63
2023/01/30 11:06:55;;;;;;;22.58;5.85;;;;;;;8.30;100.00;101907.91;4974779;28;20094;-62
2023/01/30 11:09:20;;;;;;;20.75;5.57;;;;;;;7.84;100.00;101826.00;4972544;28;20046;-62
2023/01/30 11:11:53;;;;;;;23.58;5.38;;;;;;;8.11;100.00;101912.38;4975021;28;20085;-63
2023/01/30 11:14:19;;;;;;;23.08;5.05;;;;;;;7.63;100.00;101820.84;4973040;28;20066;-64
2023/01/30 11:16:47;;;;;;;21.05;5.15;;;;;;;7.60;100.00;101854.94;4974226;28;20447;-65
2023/01/30 11:19:14;;;;;;;22.58;5.20;;;;;;;7.78;100.00;101892.44;4973238;28;20031;-62
2023/01/30 11:21:41;;;;;;;19.40;4.00;;;;;;;7.84;100.00;101891.53;4972993;28;20030;-62
2023/01/30 11:24:43;;;;;;;25.80;5.25;;;;;;;7.91;100.00;101899.34;4974693;28;20101;-63
2023/01/30 11:27:26;;;;;;;24.40;5.40;;;;;;;7.57;100.00;101811.28;4954448;28;20035;-61
2023/01/30 11:30:12;;;;;;;16.85;4.00;;;;;;;7.48;100.00;101815.69;4973821;28;20037;-64